Farmville, North Carolina
Current Conditions -  °F | °C
As of 4:30 AM on Sunday 26 Oct 2014 (Local Time) from KPGV Reporting Station
Clear Clear  
Wind Chill: 55°   Ceiling: Unl
Heat Index: 55°   Visibility: 10mi
Dew Point: 45°   Wind: 5mph
Humidity: 67%   Direction: 270°W
Pressure: 29.83"   Gusts: NA
Location:  35.6°N, 77.59°W
Report Text: KPGV 260830Z AUTO 27004KT 10SM CLR 13/07 A2983 RMK AO2
Loading
Personal Weather Stations






























Interactive Weather Map
Tropical Storm Tracking
New forecast layout! Learn more

10-Day Weather Forecast

Advertisements
Track Severe Weather on mobile